Time;durP1;ratioP1;P1;durP2;ratioP2;P2;SDS_P1;SDS_P2;PMS_P1;PMS_P2;Temp;Humidity;BMP_temperature;BMP_pressure;BME280_temperature;BME280_humidity;BME280_pressure;Samples;Min_cycle;Max_cycle;Signal;HPM_P1;HPM_P2
2021/11/19 00:00:23;;;;;;;;;;;;;;;6.60;78.01;98923.50;1743720;81;24522;-92
2021/11/19 00:02:51;;;;;;;;;;;;;;;6.58;78.10;98909.71;1764136;81;20602;-93
2021/11/19 00:05:17;;;;;;;;;;;;;;;6.57;78.21;98905.42;1764282;81;20217;-94
2021/11/19 00:07:43;;;;;;;;;;;;;;;6.55;78.33;98902.03;1764578;81;21816;-96
2021/11/19 00:10:10;;;;;;;;;;;;;;;6.55;78.42;98913.28;1764529;81;25964;-94
2021/11/19 00:12:36;;;;;;;;;;;;;;;6.54;78.51;98904.27;1764114;81;25448;-94
2021/11/19 00:15:04;;;;;;;;;;;;;;;6.53;78.59;98912.98;1763832;81;20161;-94
2021/11/19 00:17:30;;;;;;;;;;;;;;;6.54;78.69;98912.92;1764636;81;25146;-92
2021/11/19 00:19:56;;;;;;;;;;;;;;;6.56;78.75;98901.13;1763977;81;21872;-92
2021/11/19 00:22:22;;;;;;;;;;;;;;;6.55;78.83;98896.83;1752876;81;21717;-93
2021/11/19 00:28:10;;;;;;;;;;;;;;;6.52;78.97;98891.33;1735579;82;20482;-91
2021/11/19 00:30:37;;;;;;;;;;;;;;;6.51;79.07;98893.55;1735662;82;25118;-94
2021/11/19 00:33:04;;;;;;;;;;;;;;;6.51;79.12;98881.84;1735819;82;21946;-94
2021/11/19 00:35:32;;;;;;;;;;;;;;;6.49;79.17;98872.45;1735331;82;26883;-91
2021/11/19 00:38:02;;;;;;;;;;;;;;;6.48;79.25;98888.95;1735693;82;24457;-95
2021/11/19 00:40:33;;;;;;;;;;;;;;;6.49;79.30;98889.34;1735411;81;20510;-92
2021/11/19 00:43:00;;;;;;;;;;;;;;;6.48;79.37;98884.59;1735274;82;25046;-92
2021/11/19 00:45:28;;;;;;;;;;;;;;;6.45;79.42;98883.88;1735834;82;21973;-94
2021/11/19 00:47:55;;;;;;;;;;;;;;;6.43;79.46;98874.87;1733460;82;26038;-96
2021/11/19 00:50:25;;;;;;;;;;;;;;;6.41;79.53;98881.03;1733202;83;24458;-92
2021/11/19 00:52:51;;;;;;;;;;;;;;;6.40;79.60;98865.05;1734684;81;20160;-92
2021/11/19 00:55:17;;;;;;;;;;;;;;;6.39;79.66;98859.00;1737562;82;20223;-92
2021/11/19 00:57:43;;;;;;;;;;;;;;;6.39;79.73;98855.56;1737317;82;22082;-95
2021/11/19 01:00:11;;;;;;;;;;;;;;;6.38;79.82;98861.70;1715015;82;25561;-90
2021/11/19 01:06:00;;;;;;;;;;;;;;;6.34;80.00;98863.57;1737478;82;20168;-92
2021/11/19 01:08:27;;;;;;;;;;;;;;;6.32;80.13;98861.52;1737417;82;25009;-93
2021/11/19 01:10:54;;;;;;;;;;;;;;;6.30;80.19;98861.58;1737694;82;21773;-94
2021/11/19 01:13:20;;;;;;;;;;;;;;;6.28;80.28;98862.09;1737695;82;25976;-90
2021/11/19 01:18:51;;;;;;;;;;;;;;;6.29;80.47;98874.64;1737223;82;20466;-93
2021/11/19 01:21:22;;;;;;;;;;;;;;;6.28;80.56;98880.74;1737203;82;25042;-94
2021/11/19 01:23:48;;;;;;;;;;;;;;;6.28;80.65;98885.94;1714083;82;22505;-91
2021/11/19 01:26:20;;;;;;;;;;;;;;;6.30;80.73;98887.57;1737484;82;26006;-93
2021/11/19 01:28:48;;;;;;;;;;;;;;;6.32;80.82;98885.37;1736214;81;24418;-92
2021/11/19 01:31:16;;;;;;;;;;;;;;;6.32;80.87;98895.77;1735905;82;20443;-91
2021/11/19 01:33:42;;;;;;;;;;;;;;;6.31;80.97;98888.42;1737587;82;25069;-95
2021/11/19 01:36:09;;;;;;;;;;;;;;;6.32;81.02;98892.71;1737766;82;22181;-93
2021/11/19 01:38:35;;;;;;;;;;;;;;;6.30;81.10;98883.67;1739202;82;25901;-92
2021/11/19 01:41:05;;;;;;;;;;;;;;;6.28;81.15;98882.89;1746402;82;24538;-93
2021/11/19 01:43:32;;;;;;;;;;;;;;;6.26;81.20;98882.14;1737616;82;20304;-92
2021/11/19 01:46:00;;;;;;;;;;;;;;;6.24;81.27;98881.35;1737529;82;24978;-92
2021/11/19 01:48:28;;;;;;;;;;;;;;;6.23;81.33;98874.91;1737833;82;22000;-94
2021/11/19 01:50:56;;;;;;;;;;;;;;;6.22;81.36;98867.57;1737329;82;26697;-92
2021/11/19 01:53:26;;;;;;;;;;;;;;;6.23;81.44;98868.42;1737048;80;25373;-94
2021/11/19 01:55:57;;;;;;;;;;;;;;;6.22;81.50;98870.17;1736855;82;20517;-91
2021/11/19 01:58:25;;;;;;;;;;;;;;;6.23;81.57;98874.46;1736288;82;25178;-93
2021/11/19 02:00:53;;;;;;;;;;;;;;;6.22;81.63;98872.77;1736610;82;21774;-93
2021/11/19 02:03:21;;;;;;;;;;;;;;;6.22;81.71;98870.63;1737377;82;27043;-94
2021/11/19 02:06:00;;;;;;;;;;;;;;;6.22;81.76;98866.27;1737567;82;25324;-93
2021/11/19 02:08:28;;;;;;;;;;;;;;;6.20;81.82;98861.62;1736431;82;20148;-94
2021/11/19 02:11:02;;;;;;;;;;;;;;;6.20;81.91;98848.63;1713561;82;24995;-91
2021/11/19 02:13:33;;;;;;;;;;;;;;;6.19;81.99;98856.03;1737850;82;22084;-92
2021/11/19 02:16:00;;;;;;;;;;;;;;;6.15;82.07;98857.09;1737302;82;26155;-91
2021/11/19 02:18:31;;;;;;;;;;;;;;;6.10;82.14;98859.51;1736536;81;24680;-93
2021/11/19 02:20:59;;;;;;;;;;;;;;;6.05;82.19;98861.47;1737299;82;20152;-92
2021/11/19 02:23:27;;;;;;;;;;;;;;;6.04;82.32;98851.98;1737456;81;24983;-94
2021/11/19 02:25:54;;;;;;;;;;;;;;;6.01;82.41;98852.95;1736711;82;22098;-91
2021/11/19 02:28:22;;;;;;;;;;;;;;;6.01;82.51;98850.80;1737646;82;25991;-93
2021/11/19 02:30:56;;;;;;;;;;;;;;;5.95;82.65;98848.48;1737925;82;24456;-91
2021/11/19 02:33:23;;;;;;;;;;;;;;;5.93;82.73;98849.02;1737549;82;20331;-93
2021/11/19 02:35:51;;;;;;;;;;;;;;;5.89;82.83;98849.63;1737420;82;24952;-92
2021/11/19 02:38:19;;;;;;;;;;;;;;;5.89;82.94;98843.13;1737520;82;21999;-91
2021/11/19 02:40:50;;;;;;;;;;;;;;;5.87;83.07;98834.55;1737441;82;25969;-92
2021/11/19 02:43:16;;;;;;;;;;;;;;;5.86;83.18;98826.33;1737332;81;24437;-92
2021/11/19 02:45:47;;;;;;;;;;;;;;;5.84;83.29;98830.74;1737661;82;20199;-95
2021/11/19 02:48:15;;;;;;;;;;;;;;;5.84;83.40;98832.04;1737355;82;25677;-93
2021/11/19 02:50:43;;;;;;;;;;;;;;;5.77;83.50;98818.96;1737871;82;21999;-93
2021/11/19 02:56:07;;;;;;;;;;;;;;;5.79;83.74;98819.72;1682041;83;22244;-93
2021/11/19 02:58:34;;;;;;;;;;;;;;;5.79;83.88;98836.59;1662510;85;20462;-92
2021/11/19 03:01:02;;;;;;;;;;;;;;;5.77;84.00;98833.24;1684907;83;25030;-92
2021/11/19 03:03:28;;;;;;;;;;;;;;;5.77;84.11;98831.95;1683910;85;22157;-92
2021/11/19 03:05:55;;;;;;;;;;;;;;;5.74;84.22;98833.36;1713496;84;26084;-90
2021/11/19 03:08:21;;;;;;;;;;;;;;;5.73;84.33;98824.72;1713517;83;24424;-92
2021/11/19 03:10:49;;;;;;;;;;;;;;;5.72;84.46;98831.31;1713240;83;20720;-93
2021/11/19 03:13:16;;;;;;;;;;;;;;;5.72;84.55;98833.45;1713311;84;25103;-92
2021/11/19 03:15:44;;;;;;;;;;;;;;;5.72;84.66;98820.92;1713403;83;22235;-95
2021/11/19 03:18:13;;;;;;;;;;;;;;;5.69;84.79;98814.55;1713645;84;25994;-91
2021/11/19 03:20:40;;;;;;;;;;;;;;;5.69;84.91;98811.50;1713648;84;24417;-92
2021/11/19 03:23:06;;;;;;;;;;;;;;;5.71;85.02;98807.55;1713849;83;20199;-94
2021/11/19 03:25:37;;;;;;;;;;;;;;;5.70;85.14;98800.20;1713480;83;25000;-93
2021/11/19 03:31:26;;;;;;;;;;;;;;;5.70;85.35;98803.25;1713561;84;22106;-94
2021/11/19 03:33:55;;;;;;;;;;;;;;;5.69;85.47;98807.60;1713480;83;24533;-95
2021/11/19 03:36:22;;;;;;;;;;;;;;;5.71;85.59;98797.16;1714555;83;20281;-96
2021/11/19 03:42:11;;;;;;;;;;;;;;;5.71;85.76;98801.90;1714485;84;20178;-95
2021/11/19 03:44:40;;;;;;;;;;;;;;;5.73;85.87;98801.36;1715278;82;23091;-94
2021/11/19 03:47:08;;;;;;;;;;;;;;;5.75;85.97;98796.10;1699530;83;24592;-96
2021/11/19 03:52:59;;;;;;;;;;;;;;;5.75;86.15;98792.20;1704565;84;21116;-96
2021/11/19 03:58:47;;;;;;;;;;;;;;;5.79;86.31;98784.66;1696874;82;22109;-93
2021/11/19 04:01:15;;;;;;;;;;;;;;;5.80;86.43;98779.86;1691813;84;24627;-96
2021/11/19 04:03:42;;;;;;;;;;;;;;;5.80;86.49;98789.80;1691721;84;20188;-94
2021/11/19 04:09:31;;;;;;;;;;;;;;;5.82;86.61;98783.23;1691403;84;20273;-96
2021/11/19 04:12:02;;;;;;;;;;;;;;;5.80;86.69;98797.58;1692137;84;25951;-95
2021/11/19 04:17:50;;;;;;;;;;;;;;;5.80;86.86;98794.14;1691850;84;20195;-93
2021/11/19 04:20:16;;;;;;;;;;;;;;;5.80;86.92;98791.55;1737403;82;25014;-95
2021/11/19 04:22:43;;;;;;;;;;;;;;;5.79;86.97;98802.84;1739110;82;22000;-94
2021/11/19 04:25:15;;;;;;;;;;;;;;;5.79;87.05;98799.79;1683468;84;25819;-96
2021/11/19 04:31:12;;;;;;;;;;;;;;;5.81;87.19;98788.89;1692296;84;20196;-96
2021/11/19 04:33:38;;;;;;;;;;;;;;;5.84;87.30;98781.39;1690022;83;25078;-95
2021/11/19 04:36:09;;;;;;;;;;;;;;;5.83;87.37;98787.08;1692247;83;22021;-96
2021/11/19 04:38:47;;;;;;;;;;;;;;;5.84;87.44;98782.70;1691759;84;25950;-93
2021/11/19 04:44:36;;;;;;;;;;;;;;;5.83;87.56;98778.44;1691906;84;20205;-96
2021/11/19 04:47:10;;;;;;;;;;;;;;;5.85;87.66;98790.42;1691958;84;25039;-96
2021/11/19 04:49:40;;;;;;;;;;;;;;;5.86;87.72;98776.53;1736423;82;21908;-96
2021/11/19 04:52:12;;;;;;;;;;;;;;;5.86;87.80;98779.13;1735988;82;22824;-96
2021/11/19 04:54:39;;;;;;;;;;;;;;;5.87;87.86;98785.20;1691743;83;21365;-93
2021/11/19 04:57:06;;;;;;;;;;;;;;;5.89;87.93;98791.19;1690699;85;20302;-94
2021/11/19 04:59:39;;;;;;;;;;;;;;;5.88;87.98;98784.30;1689561;83;25131;-95
2021/11/19 05:02:07;;;;;;;;;;;;;;;5.87;88.05;98786.50;1665533;85;21945;-96
2021/11/19 05:04:43;;;;;;;;;;;;;;;5.91;88.09;98785.45;1690171;84;26248;-96
2021/11/19 05:07:09;;;;;;;;;;;;;;;5.95;88.16;98782.23;1690235;85;24601;-94
2021/11/19 05:09:35;;;;;;;;;;;;;;;5.95;88.22;98770.55;1690529;85;20884;-93
2021/11/19 05:12:03;;;;;;;;;;;;;;;5.96;88.25;98764.45;1689725;85;25051;-94
2021/11/19 05:14:29;;;;;;;;;;;;;;;5.98;88.31;98777.77;1689888;85;22024;-95
2021/11/19 05:17:32;;;;;;;;;;;;;;;5.99;88.37;98779.45;1669321;85;22049;-95
2021/11/19 05:19:58;;;;;;;;;;;;;;;6.01;88.41;98779.36;1689239;85;25294;-94
2021/11/19 05:22:24;;;;;;;;;;;;;;;5.99;88.48;98778.16;1689493;85;20506;-96
2021/11/19 05:24:50;;;;;;;;;;;;;;;5.99;88.51;98778.16;1689567;85;25074;-96
2021/11/19 05:27:18;;;;;;;;;;;;;;;5.99;88.58;98777.31;1665931;85;21759;-93
2021/11/19 05:29:44;;;;;;;;;;;;;;;6.00;88.63;98781.60;1689505;85;26310;-95
2021/11/19 05:32:12;;;;;;;;;;;;;;;5.98;88.68;98771.73;1697708;84;20253;-96
2021/11/19 05:34:38;;;;;;;;;;;;;;;6.00;88.72;98780.30;1705461;82;20229;-95
2021/11/19 05:37:05;;;;;;;;;;;;;;;6.00;88.76;98782.90;1705569;84;25027;-95
2021/11/19 05:39:31;;;;;;;;;;;;;;;6.01;88.82;98781.96;1702277;82;21747;-93
2021/11/19 05:41:57;;;;;;;;;;;;;;;6.01;88.89;98778.91;1689850;85;26043;-96
2021/11/19 05:44:23;;;;;;;;;;;;;;;6.04;88.94;98777.94;1689824;85;20299;-96
2021/11/19 05:46:51;;;;;;;;;;;;;;;6.04;89.00;98788.34;1689907;84;20466;-94
2021/11/19 05:49:21;;;;;;;;;;;;;;;6.04;89.04;98779.24;1690058;85;24801;-94
2021/11/19 05:51:49;;;;;;;;;;;;;;;6.04;89.08;98777.48;1689702;85;21770;-95
2021/11/19 05:54:17;;;;;;;;;;;;;;;6.03;89.14;98775.80;1689763;85;26198;-96
2021/11/19 05:56:43;;;;;;;;;;;;;;;6.03;89.21;98773.20;1666247;85;24504;-94
2021/11/19 05:59:11;;;;;;;;;;;;;;;6.04;89.29;98772.30;1689589;83;20302;-95
2021/11/19 06:01:37;;;;;;;;;;;;;;;6.05;89.33;98778.34;1690290;85;25062;-94
2021/11/19 06:04:04;;;;;;;;;;;;;;;6.05;89.40;98769.24;1689773;85;22250;-93
2021/11/19 06:06:30;;;;;;;;;;;;;;;6.05;89.46;98786.12;1689837;85;26048;-95
2021/11/19 06:08:57;;;;;;;;;;;;;;;6.05;89.53;98786.98;1690184;84;20259;-95
2021/11/19 06:11:25;;;;;;;;;;;;;;;6.06;89.57;98786.48;1690770;83;20148;-95
2021/11/19 06:13:53;;;;;;;;;;;;;;;6.07;89.64;98794.67;1690051;85;24970;-94
2021/11/19 06:16:20;;;;;;;;;;;;;;;6.09;89.70;98788.51;1691347;83;22120;-93
2021/11/19 06:18:49;;;;;;;;;;;;;;;6.08;89.78;98793.31;1690600;83;26071;-96
2021/11/19 06:24:38;;;;;;;;;;;;;;;6.09;89.87;98796.76;1691235;85;20523;-95
2021/11/19 06:30:27;;;;;;;;;;;;;;;6.09;90.06;98798.91;1691228;85;20479;-96
2021/11/19 06:32:54;;;;;;;;;;;;;;;6.10;90.14;98802.34;1691434;83;26035;-96
2021/11/19 06:35:22;;;;;;;;;;;;;;;6.09;90.20;98798.91;1690974;85;24459;-96
2021/11/19 06:37:58;;;;;;;;;;;;;;;6.11;90.29;98794.94;1691780;83;20164;-96
2021/11/19 06:40:26;;;;;;;;;;;;;;;6.10;90.36;98799.30;1691399;85;24946;-93
2021/11/19 06:42:54;;;;;;;;;;;;;;;6.10;90.43;98815.34;1691436;83;21983;-96
2021/11/19 06:48:43;;;;;;;;;;;;;;;6.11;90.54;98813.13;1691819;85;20567;-95
2021/11/19 06:51:11;;;;;;;;;;;;;;;6.11;90.67;98819.14;1691674;83;20192;-96
2021/11/19 06:56:59;;;;;;;;;;;;;;;6.11;90.81;98823.04;1691685;85;20144;-94
2021/11/19 07:02:34;;;;;;;;;;;;;;;6.11;90.99;98830.83;1733631;82;24551;-95
2021/11/19 07:05:03;;;;;;;;;;;;;;;6.11;91.07;98835.22;1711475;83;20165;-95
2021/11/19 07:07:32;;;;;;;;;;;;;;;6.14;91.15;98829.41;1712262;83;25600;-96
2021/11/19 07:09:58;;;;;;;;;;;;;;;6.16;91.24;98833.25;1734397;83;21712;-95
2021/11/19 07:12:24;;;;;;;;;;;;;;;6.18;91.33;98828.80;1746909;80;26204;-96
2021/11/19 07:14:50;;;;;;;;;;;;;;;6.18;91.40;98833.55;1765314;81;24443;-95
2021/11/19 07:17:18;;;;;;;;;;;;;;;6.19;91.46;98826.59;1742954;82;20219;-95
2021/11/19 07:19:44;;;;;;;;;;;;;;;6.18;91.55;98828.80;1757647;81;25526;-96
2021/11/19 07:22:11;;;;;;;;;;;;;;;6.18;91.61;98824.45;1760074;81;22035;-95
2021/11/19 07:24:37;;;;;;;;;;;;;;;6.20;91.68;98830.44;1760789;81;25925;-94
2021/11/19 07:27:04;;;;;;;;;;;;;;;6.23;91.75;98827.69;1760068;81;24423;-95
2021/11/19 07:29:52;;;;;;;;;;;;;;;6.27;91.83;98833.60;1761136;81;20127;-95
2021/11/19 07:32:18;;;;;;;;;;;;;;;6.27;91.89;98832.30;1760240;81;25232;-95
2021/11/19 07:38:06;;;;;;;;;;;;;;;6.27;92.05;98839.61;1759647;81;23859;-96
2021/11/19 07:40:34;;;;;;;;;;;;;;;6.30;92.13;98838.19;1760006;81;24615;-96
2021/11/19 07:43:07;;;;;;;;;;;;;;;6.32;92.20;98834.69;1734020;80;20170;-95
2021/11/19 07:45:37;;;;;;;;;;;;;;;6.34;92.28;98830.23;1683751;83;21898;-95
2021/11/19 07:51:30;;;;;;;;;;;;;;;6.39;92.40;98842.56;1715297;83;22224;-96
2021/11/19 07:53:58;;;;;;;;;;;;;;;6.42;92.49;98855.44;1714582;83;21546;-95
2021/11/19 07:59:59;;;;;;;;;;;;;;;6.45;92.60;98850.08;1637154;87;21085;-95
2021/11/19 08:02:22;;;;;;;;;;;;;;;6.47;92.70;98849.11;1635952;86;21709;-96
2021/11/19 08:04:55;;;;;;;;;;;;;;;6.47;92.75;98847.81;1690253;84;22966;-95
2021/11/19 08:07:24;;;;;;;;;;;;;;;6.51;92.82;98857.59;1710996;82;24470;-96
2021/11/19 08:09:50;;;;;;;;;;;;;;;6.51;92.87;98847.20;1664142;86;20172;-95
2021/11/19 08:12:16;;;;;;;;;;;;;;;6.56;92.91;98849.13;1637067;87;25691;-96
2021/11/19 08:14:42;;;;;;;;;;;;;;;6.59;92.97;98842.50;1626479;87;21712;-93
2021/11/19 08:17:23;;;;;;;;;;;;;;;6.62;93.03;98848.38;1710283;84;26161;-95
2021/11/19 08:19:50;;;;;;;;;;;;;;;6.64;93.09;98845.72;1663781;86;24285;-93
2021/11/19 08:24:53;;;;;;;;;;;;;;;6.64;93.18;98843.96;1716590;78;20162;-96
2021/11/19 08:30:32;;;;;;;;;;;;;;;6.69;93.28;98848.48;1664571;86;22179;-96
2021/11/19 08:33:09;;;;;;;;;;;;;;;6.71;93.36;98845.79;1690344;83;21511;-96
2021/11/19 08:38:59;;;;;;;;;;;;;;;6.74;93.48;98850.86;1691463;85;23024;-96
2021/11/19 08:41:27;;;;;;;;;;;;;;;6.76;93.51;98858.14;1686360;84;20247;-96
2021/11/19 08:43:56;;;;;;;;;;;;;;;6.76;93.56;98856.84;1687138;83;23325;-95
2021/11/19 08:46:38;;;;;;;;;;;;;;;6.76;93.60;98858.60;1687637;83;24470;-96
2021/11/19 08:49:08;;;;;;;;;;;;;;;6.78;93.62;98857.59;1661404;85;20312;-96
2021/11/19 08:51:34;;;;;;;;;;;;;;;6.80;93.67;98853.17;1660810;84;25262;-93
2021/11/19 08:54:02;;;;;;;;;;;;;;;6.82;93.74;98852.63;1660942;84;21970;-96
2021/11/19 08:56:30;;;;;;;;;;;;;;;6.83;93.78;98852.17;1660880;85;26016;-96
2021/11/19 08:58:57;;;;;;;;;;;;;;;6.85;93.82;98852.49;1616579;86;24844;-96
2021/11/19 09:01:23;;;;;;;;;;;;;;;6.86;93.87;98847.69;1661049;85;20500;-95
2021/11/19 09:03:49;;;;;;;;;;;;;;;6.88;93.92;98847.58;1661351;85;25468;-95
2021/11/19 09:06:26;;;;;;;;;;;;;;;6.92;93.97;98844.79;1661191;85;22113;-96
2021/11/19 09:08:52;;;;;;;;;;;;;;;6.93;93.99;98850.34;1660596;85;25998;-96
2021/11/19 09:11:20;;;;;;;;;;;;;;;6.97;94.04;98851.06;1660631;84;20333;-95
2021/11/19 09:13:48;;;;;;;;;;;;;;;7.00;94.09;98849.14;1660859;84;20186;-96
2021/11/19 09:16:15;;;;;;;;;;;;;;;7.02;94.13;98851.68;1660927;84;24972;-95
2021/11/19 09:18:59;;;;;;;;;;;;;;;7.04;94.16;98845.47;1661527;85;21708;-96
2021/11/19 09:21:28;;;;;;;;;;;;;;;7.04;94.21;98844.16;1661417;85;25979;-95
2021/11/19 09:23:59;;;;;;;;;;;;;;;7.06;94.26;98846.70;1660875;82;24682;-95
2021/11/19 09:26:33;;;;;;;;;;;;;;;7.05;94.29;98851.52;1673977;83;20243;-95
2021/11/19 09:29:01;;;;;;;;;;;;;;;7.04;94.32;98854.58;1687288;83;24969;-96
2021/11/19 09:31:29;;;;;;;;;;;;;;;7.05;94.34;98847.16;1686569;83;20172;-96
2021/11/19 09:33:55;;;;;;;;;;;;;;;7.05;94.39;98853.66;1686974;84;26057;-96
2021/11/19 09:36:22;;;;;;;;;;;;;;;7.07;94.40;98849.23;1687263;83;24426;-96
2021/11/19 09:38:50;;;;;;;;;;;;;;;7.10;94.45;98851.67;1687006;83;20274;-93
2021/11/19 09:44:57;;;;;;;;;;;;;;;7.14;94.56;98848.48;1687102;85;20160;-96
2021/11/19 09:47:26;;;;;;;;;;;;;;;7.15;94.60;98850.14;1686831;83;26033;-96
2021/11/19 09:53:29;;;;;;;;;;;;;;;7.19;94.68;98854.30;1687424;85;20278;-96
2021/11/19 09:56:09;;;;;;;;;;;;;;;7.21;94.74;98856.35;1687618;83;24992;-96
2021/11/19 09:58:37;;;;;;;;;;;;;;;7.24;94.78;98852.77;1687615;83;21806;-95
2021/11/19 10:01:08;;;;;;;;;;;;;;;7.26;94.83;98855.66;1687253;83;26087;-96
2021/11/19 10:03:35;;;;;;;;;;;;;;;7.29;94.90;98850.78;1686939;83;24778;-96
2021/11/19 10:09:39;;;;;;;;;;;;;;;7.31;94.98;98842.44;1686997;85;21244;-96
2021/11/19 10:12:09;;;;;;;;;;;;;;;7.29;95.03;98836.45;1652438;83;20499;-96
2021/11/19 10:14:42;;;;;;;;;;;;;;;7.33;95.07;98844.03;1687177;83;26129;-95
2021/11/19 10:17:13;;;;;;;;;;;;;;;7.34;95.12;98834.01;1687022;83;24474;-96
2021/11/19 10:19:47;;;;;;;;;;;;;;;7.36;95.14;98829.58;1687655;83;20206;-95
2021/11/19 10:28:52;;;;;;;;;;;;;;;7.44;95.29;98829.17;1689799;83;22159;-96
2021/11/19 10:31:22;;;;;;;;;;;;;;;7.47;95.32;98823.83;1684949;85;24518;-96
2021/11/19 10:37:19;;;;;;;;;;;;;;;7.52;95.38;98824.43;1685162;85;21109;-94
2021/11/19 10:40:03;;;;;;;;;;;;;;;7.56;95.42;98816.83;1724693;82;21782;-96
2021/11/19 10:42:40;;;;;;;;;;;;;;;7.58;95.44;98813.70;1695788;83;26092;-95
2021/11/19 10:45:24;;;;;;;;;;;;;;;7.62;95.47;98815.22;1724705;82;24439;-95
2021/11/19 10:47:52;;;;;;;;;;;;;;;7.64;95.49;98809.94;1724835;83;20174;-95
2021/11/19 10:50:32;;;;;;;;;;;;;;;7.67;95.54;98808.00;1695532;83;24982;-96
2021/11/19 10:56:40;;;;;;;;;;;;;;;7.77;95.59;98806.59;1725322;83;22105;-96
2021/11/19 10:59:26;;;;;;;;;;;;;;;7.81;95.62;98805.50;1724978;83;24281;-96
2021/11/19 11:02:02;;;;;;;;;;;;;;;7.85;95.63;98805.75;1724813;82;20200;-96
2021/11/19 11:08:05;;;;;;;;;;;;;;;7.92;95.66;98806.23;1724689;83;20166;-95
2021/11/19 11:10:33;;;;;;;;;;;;;;;7.93;95.64;98801.41;1724664;82;25987;-96
2021/11/19 11:12:59;;;;;;;;;;;;;;;7.93;95.61;98803.56;1696238;83;24472;-96
2021/11/19 11:15:27;;;;;;;;;;;;;;;7.94;95.58;98801.34;1696258;83;20219;-95
2021/11/19 11:18:01;;;;;;;;;;;;;;;7.95;95.57;98794.36;1724810;83;25145;-95
2021/11/19 11:20:32;;;;;;;;;;;;;;;7.96;95.55;98789.53;1725020;83;21841;-96
2021/11/19 11:23:04;;;;;;;;;;;;;;;7.96;95.51;98790.35;1725174;83;26030;-95
2021/11/19 11:25:30;;;;;;;;;;;;;;;7.98;95.48;98784.61;1724416;82;24533;-95
2021/11/19 11:28:18;;;;;;;;;;;;;;;8.01;95.46;98793.20;1725659;83;20166;-95
2021/11/19 11:34:55;;;;;;;;;;;;;;;;;;;;;
2021/11/19 11:40:13;;;;;;;;;;;;;;;8.09;95.34;98797.06;1679003;85;20593;-95
2021/11/19 11:46:07;;;;;;;;;;;;;;;8.10;95.27;98797.91;1701180;84;21220;-96
2021/11/19 11:49:01;;;;;;;;;;;;;;;8.08;95.20;98806.25;1646166;84;21871;-96
2021/11/19 11:55:05;;;;;;;;;;;;;;;8.08;95.08;98803.64;1701105;84;20581;-96
2021/11/19 12:40:32;;;;;;;;;;;;;;;8.27;94.42;98801.28;1675054;84;20183;-96
2021/11/19 12:46:42;;;;;;;;;;;;;;;8.28;94.34;98792.55;1741073;81;20235;-96
2021/11/19 12:52:45;;;;;;;;;;;;;;;8.32;94.27;98797.15;1740949;82;20546;-95
2021/11/19 12:58:46;;;;;;;;;;;;;;;8.34;94.20;98796.61;1730481;82;21096;-95
2021/11/19 13:10:35;;;;;;;;;;;;;;;8.36;94.04;98790.83;1674932;81;20227;-95
2021/11/19 13:19:04;;;;;;;;;;;;;;;8.39;93.94;98786.31;1647011;84;20271;-96
2021/11/19 13:25:07;;;;;;;;;;;;;;;8.40;93.90;98795.79;1768938;81;20181;-96
2021/11/19 13:27:44;;;;;;;;;;;;;;;8.41;93.85;98795.33;1768338;79;25011;-96
2021/11/19 13:33:32;;;;;;;;;;;;;;;8.43;93.79;98788.27;1768632;80;22087;-96
2021/11/19 13:36:01;;;;;;;;;;;;;;;8.44;93.77;98793.88;1768456;80;20343;-95
2021/11/19 13:41:59;;;;;;;;;;;;;;;8.45;93.71;98776.46;1768381;80;21104;-96
2021/11/19 13:48:10;;;;;;;;;;;;;;;8.46;93.64;98793.30;1768552;81;22174;-95
2021/11/19 13:56:42;;;;;;;;;;;;;;;8.49;93.58;98795.77;1761961;81;21087;-96
2021/11/19 13:59:16;;;;;;;;;;;;;;;8.51;93.55;98793.89;1758432;81;22038;-94
2021/11/19 14:05:16;;;;;;;;;;;;;;;8.52;93.50;98786.91;1758044;81;20548;-96
2021/11/19 14:07:52;;;;;;;;;;;;;;;8.49;93.47;98782.72;1734412;81;20162;-96
2021/11/19 14:10:36;;;;;;;;;;;;;;;8.52;93.46;98789.52;1734362;81;24802;-95
2021/11/19 14:13:20;;;;;;;;;;;;;;;8.52;93.46;98791.66;1758330;81;21781;-96
2021/11/19 14:15:47;;;;;;;;;;;;;;;8.52;93.45;98786.91;1733508;81;26119;-96
2021/11/19 14:18:30;;;;;;;;;;;;;;;8.52;93.44;98783.84;1754414;81;24436;-96
2021/11/19 14:27:09;;;;;;;;;;;;;;;8.54;93.37;98782.00;1755518;81;20279;-95
2021/11/19 14:29:36;;;;;;;;;;;;;;;8.54;93.34;98782.45;1754938;81;26070;-95
2021/11/19 14:32:05;;;;;;;;;;;;;;;8.53;93.32;98782.08;1753549;81;24410;-93
2021/11/19 14:34:45;;;;;;;;;;;;;;;8.54;93.30;98785.06;1743892;81;20177;-94
2021/11/19 14:37:19;;;;;;;;;;;;;;;8.56;93.30;98776.70;1755202;81;25037;-96
2021/11/19 14:39:48;;;;;;;;;;;;;;;8.56;93.28;98783.22;1754319;81;21761;-96
2021/11/19 15:10:46;;;;;;;;;;;;;;;8.56;93.12;98757.14;1832225;77;20244;-95
2021/11/19 15:13:29;;;;;;;;;;;;;;;8.59;93.21;98764.31;1781538;79;21877;-96
2021/11/19 15:16:02;;;;;;;;;;;;;;;8.62;93.23;98762.02;1777595;79;25986;-95
2021/11/19 15:27:45;;;;;;;;;;;;;;;8.66;93.12;98762.20;1781020;79;20218;-95
2021/11/19 15:30:31;;;;;;;;;;;;;;;8.67;93.11;98773.84;1715930;80;27005;-93
2021/11/19 15:33:01;;;;;;;;;;;;;;;8.69;93.07;98769.84;1785310;79;24569;-94
2021/11/19 15:35:41;;;;;;;;;;;;;;;8.70;93.05;98772.84;1780848;79;20371;-96
2021/11/19 15:38:13;;;;;;;;;;;;;;;8.71;93.03;98769.30;1770979;79;24369;-95
2021/11/19 15:57:57;;;;;;;;;;;;;;;8.80;92.90;98789.65;1737308;81;22068;-94
2021/11/19 16:00:34;;;;;;;;;;;;;;;8.81;92.86;98796.55;1744401;82;24669;-95
2021/11/19 16:03:18;;;;;;;;;;;;;;;8.83;92.83;98791.26;1727541;81;20207;-95
2021/11/19 16:05:59;;;;;;;;;;;;;;;8.83;92.83;98794.70;1732570;81;24316;-95
2021/11/19 16:08:43;;;;;;;;;;;;;;;8.84;92.79;98796.36;1635331;85;21772;-96
2021/11/19 16:11:27;;;;;;;;;;;;;;;8.87;92.76;98803.20;1646258;82;26925;-94
2021/11/19 16:14:00;;;;;;;;;;;;;;;8.87;92.73;98809.72;1728306;82;24506;-94
2021/11/19 16:16:27;;;;;;;;;;;;;;;8.87;92.71;98805.80;1728256;83;20184;-94
2021/11/19 16:18:55;;;;;;;;;;;;;;;8.89;92.67;98807.88;1728499;82;24448;-95
2021/11/19 16:21:22;;;;;;;;;;;;;;;8.88;92.62;98810.10;1733486;81;22100;-95
2021/11/19 16:23:48;;;;;;;;;;;;;;;8.89;92.63;98809.18;1742498;80;27298;-96
2021/11/19 16:26:19;;;;;;;;;;;;;;;8.87;92.59;98812.33;1739378;82;24467;-95
2021/11/19 16:28:46;;;;;;;;;;;;;;;8.86;92.58;98820.63;1736829;81;20144;-94
2021/11/19 16:31:22;;;;;;;;;;;;;;;8.84;92.57;98813.82;1732387;82;24386;-96
2021/11/19 16:33:52;;;;;;;;;;;;;;;8.80;92.54;98811.83;1732875;81;22027;-96
2021/11/19 16:36:20;;;;;;;;;;;;;;;8.76;92.53;98824.68;1725011;81;26116;-96
2021/11/19 16:44:20;;;;;;;;;;;;;;;8.65;92.60;98821.37;1678987;83;20483;-94
2021/11/19 16:46:48;;;;;;;;;;;;;;;8.61;92.62;98826.39;1672507;83;21820;-96
2021/11/19 16:49:16;;;;;;;;;;;;;;;8.59;92.67;98818.25;1677187;83;26108;-96
2021/11/19 16:51:45;;;;;;;;;;;;;;;8.57;92.71;98814.88;1681562;83;24754;-95
2021/11/19 16:54:11;;;;;;;;;;;;;;;8.54;92.76;98822.42;1680158;83;20467;-94
2021/11/19 16:56:39;;;;;;;;;;;;;;;8.53;92.82;98825.11;1646955;85;24355;-96
2021/11/19 16:59:06;;;;;;;;;;;;;;;8.51;92.87;98829.59;1656566;83;22204;-96
2021/11/19 17:01:35;;;;;;;;;;;;;;;8.50;92.92;98827.45;1700692;82;21343;-95
2021/11/19 17:04:01;;;;;;;;;;;;;;;8.50;93.00;98829.20;1677520;82;24469;-96
2021/11/19 17:06:29;;;;;;;;;;;;;;;8.49;93.06;98832.27;1677198;82;20185;-95
2021/11/19 17:08:56;;;;;;;;;;;;;;;8.49;93.14;98821.00;1679128;83;24506;-95
2021/11/19 17:11:24;;;;;;;;;;;;;;;8.49;93.20;98827.06;1684468;80;21784;-95
2021/11/19 17:13:51;;;;;;;;;;;;;;;8.49;93.24;98826.22;1690971;83;26108;-96
2021/11/19 17:16:20;;;;;;;;;;;;;;;8.48;93.32;98827.13;1680359;84;24548;-95
2021/11/19 17:18:47;;;;;;;;;;;;;;;8.49;93.37;98828.83;1705557;83;20173;-94
2021/11/19 17:21:15;;;;;;;;;;;;;;;8.50;93.46;98820.92;1697735;83;24375;-96
2021/11/19 17:23:44;;;;;;;;;;;;;;;8.49;93.53;98824.91;1704998;83;21788;-95
2021/11/19 17:26:17;;;;;;;;;;;;;;;8.49;93.59;98825.75;1694751;83;26024;-95
2021/11/19 17:28:45;;;;;;;;;;;;;;;8.48;93.66;98824.06;1687017;83;24540;-94
2021/11/19 17:31:12;;;;;;;;;;;;;;;8.48;93.73;98819.31;1699670;83;20176;-95
2021/11/19 17:33:41;;;;;;;;;;;;;;;8.47;93.79;98825.45;1677183;84;24564;-95
2021/11/19 17:36:06;;;;;;;;;;;;;;;8.48;93.83;98825.83;1695930;83;21813;-95
2021/11/19 17:38:35;;;;;;;;;;;;;;;8.47;93.88;98833.27;1699757;83;26154;-96
2021/11/19 17:41:01;;;;;;;;;;;;;;;8.48;93.95;98842.33;1703242;83;24728;-96
2021/11/19 17:43:27;;;;;;;;;;;;;;;8.49;94.03;98842.70;1709163;83;20205;-93
2021/11/19 17:45:55;;;;;;;;;;;;;;;8.50;94.07;98839.64;1706265;83;24338;-94